»·PEaware :: WAT542 KPDX-KBIL

WAT542 :: KPDX-KBIL

FLIGHT INFORMATION

Flight Status: Arrived
Operator:
Walker Air Transport
More flights by this operator :: More flights under this callsign
Pilot: Andrew C. (28419)
Aircraft: BOEING 727-200
(B722)
More flights by this aircraft type
Origin: KPDX Portland Intl
United States
Destination: KBIL Billings Logan Intl
United States
More flights between these airports :: More routes between these airports
Route: PTLD2 PDT J16 BIL
File this flight plan on PilotEdge
Remarks: RMK / SIMBRIEF
Altitude:
(Current/Filed)
33,000ft
Speed:
(Current/Filed)
469kts
Departed: 11-Oct-21 08:41 PM
Arrived: 11-Oct-21 10:09 PM
Distance/Time
Traveled:
588nm/1:28
Distance/Time
To Go:
Arrived

Flight Plot

Page will automatically refresh every two minutes.

Flight plan parsing failed; only flown route is shown


Map Options




Map Legend


Flown Route
Filed Route
Departure Airport
Arrival Airport
Navaid (VOR, NDB)
Fix

Horizontal Profiles

Position Reports

Time Latitude Longitude Heading Altitude Ground
Speed
11-Oct-21 20:18 45.591194 -122.594052 207 33ft 0kts
11-Oct-21 20:19 45.591194 -122.594052 207 33ft 0kts
11-Oct-21 20:20 45.591194 -122.594052 207 33ft 0kts
11-Oct-21 20:21 45.591194 -122.594052 207 33ft 0kts
11-Oct-21 20:22 45.591194 -122.594052 207 33ft 0kts
11-Oct-21 20:23 45.591194 -122.594052 207 33ft 0kts
11-Oct-21 20:24 45.591194 -122.594052 207 33ft 0kts
11-Oct-21 20:25 45.591194 -122.594052 207 33ft 0kts
11-Oct-21 20:26 45.591194 -122.594052 207 33ft 0kts
11-Oct-21 20:27 45.591194 -122.594052 207 33ft 0kts
11-Oct-21 20:28 45.591194 -122.594052 207 33ft 0kts
11-Oct-21 20:29 45.591194 -122.594052 207 33ft 0kts
11-Oct-21 20:30 45.591194 -122.594052 207 33ft 0kts
11-Oct-21 20:31 45.591204 -122.594044 207 33ft 1kts
11-Oct-21 20:32 45.591717 -122.593597 240 33ft 2kts
11-Oct-21 20:33 45.591699 -122.593048 299 33ft 0kts
11-Oct-21 20:34 45.591699 -122.593048 299 33ft 0kts
11-Oct-21 20:35 45.591699 -122.593048 299 33ft 0kts
11-Oct-21 20:36 45.591699 -122.593048 299 33ft 0kts
11-Oct-21 20:37 45.591745 -122.593162 299 33ft 5kts
11-Oct-21 20:38 45.593597 -122.596346 24 33ft 0kts
11-Oct-21 20:39 45.594480 -122.595596 47 33ft 9kts
11-Oct-21 20:40 45.584917 -122.570368 118 108ft 171kts
11-Oct-21 20:41 45.566572 -122.501544 105 1633ft 227kts
11-Oct-21 20:42 45.548184 -122.407048 104 4181ft 262kts
11-Oct-21 20:43 45.527912 -122.305546 105 7155ft 272kts
11-Oct-21 20:44 45.510690 -122.199715 95 9736ft 280kts
11-Oct-21 20:45 45.499866 -122.082783 94 11468ft 316kts
11-Oct-21 20:46 45.486785 -121.955193 94 13653ft 331kts
11-Oct-21 20:47 45.469311 -121.822786 94 15604ft 345kts
11-Oct-21 20:48 45.447867 -121.686879 94 17341ft 358kts
11-Oct-21 20:49 45.436202 -121.546866 82 18866ft 357kts
11-Oct-21 20:50 45.436397 -121.406068 74 20410ft 354kts
11-Oct-21 20:51 45.450262 -121.267486 66 21616ft 352kts
11-Oct-21 20:52 45.477342 -121.134988 59 22758ft 349kts
11-Oct-21 20:53 45.511255 -121.004801 58 23792ft 353kts
11-Oct-21 20:54 45.541627 -120.869794 63 24669ft 366kts
11-Oct-21 20:55 45.558926 -120.724611 72 25610ft 379kts
11-Oct-21 20:56 45.544838 -120.568355 85 26177ft 405kts
11-Oct-21 20:57 45.537916 -120.412291 73 26887ft 386kts
11-Oct-21 20:58 45.556393 -120.265217 60 27426ft 369kts
11-Oct-21 20:59 45.590607 -120.128938 56 27891ft 369kts
11-Oct-21 21:00 45.622628 -119.984252 64 27938ft 397kts
11-Oct-21 21:01 45.635213 -119.823884 75 28575ft 414kts
11-Oct-21 21:02 45.634242 -119.659855 75 29254ft 411kts
11-Oct-21 21:03 45.643014 -119.499490 67 29706ft 398kts
11-Oct-21 21:04 45.662162 -119.345065 67 30022ft 398kts
11-Oct-21 21:05 45.677841 -119.186360 71 30239ft 407kts
11-Oct-21 21:06 45.691836 -119.025436 72 30456ft 410kts
11-Oct-21 21:07 45.704232 -118.863018 77 30730ft 418kts
11-Oct-21 21:08 45.707340 -118.695890 75 30953ft 417kts
11-Oct-21 21:09 45.717945 -118.530320 76 31347ft 420kts
11-Oct-21 21:10 45.727314 -118.363376 78 31757ft 421kts
11-Oct-21 21:11 45.734568 -118.196098 79 32115ft 423kts
11-Oct-21 21:12 45.740538 -118.027913 80 32430ft 424kts
11-Oct-21 21:13 45.746526 -117.859554 80 32734ft 424kts
11-Oct-21 21:14 45.752444 -117.691034 80 33068ft 424kts
11-Oct-21 21:15 45.758825 -117.520947 80 33191ft 433kts
11-Oct-21 21:16 45.765894 -117.345814 82 33185ft 445kts
11-Oct-21 21:17 45.772848 -117.166339 83 33185ft 457kts
11-Oct-21 21:18 45.779183 -116.982043 84 33175ft 469kts
11-Oct-21 21:19 45.784554 -116.793899 85 33164ft 475kts
11-Oct-21 21:20 45.788867 -116.604581 87 33165ft 477kts
11-Oct-21 21:21 45.792554 -116.414887 87 33165ft 479kts
11-Oct-21 21:22 45.795963 -116.224561 88 33165ft 481kts
11-Oct-21 21:23 45.799405 -116.032800 88 33193ft 482kts
11-Oct-21 21:24 45.805930 -115.841143 86 33224ft 483kts
11-Oct-21 21:25 45.813981 -115.648346 87 33219ft 485kts
11-Oct-21 21:26 45.819281 -115.455301 88 33219ft 486kts
11-Oct-21 21:27 45.822203 -115.261024 90 33220ft 487kts
11-Oct-21 21:28 45.823918 -115.066801 91 33180ft 490kts
11-Oct-21 21:29 45.826161 -114.870901 91 33141ft 492kts
11-Oct-21 21:30 45.830036 -114.675068 90 33147ft 494kts
11-Oct-21 21:31 45.835636 -114.477515 90 33146ft 496kts
11-Oct-21 21:32 45.842003 -114.278581 91 33146ft 499kts
11-Oct-21 21:33 45.847206 -114.079384 92 33140ft 500kts
11-Oct-21 21:34 45.850131 -113.879037 93 33137ft 501kts
11-Oct-21 21:35 45.851285 -113.679186 93 33138ft 503kts
11-Oct-21 21:36 45.852446 -113.478315 93 33138ft 504kts
11-Oct-21 21:37 45.854964 -113.276967 93 33138ft 505kts
11-Oct-21 21:38 45.858042 -113.076166 94 33137ft 505kts
11-Oct-21 21:39 45.859878 -112.874749 95 33131ft 504kts
11-Oct-21 21:40 45.860310 -112.674165 95 33127ft 503kts
11-Oct-21 21:41 45.860748 -112.473673 95 33129ft 503kts
11-Oct-21 21:42 45.861259 -112.272570 96 33128ft 503kts
11-Oct-21 21:43 45.861442 -112.071967 96 33129ft 502kts
11-Oct-21 21:44 45.876452 -111.870668 88 33133ft 509kts
11-Oct-21 21:45 45.892293 -111.669796 91 33131ft 507kts
11-Oct-21 21:46 45.898558 -111.468156 96 33127ft 502kts
11-Oct-21 21:47 45.891462 -111.269211 102 33125ft 498kts
11-Oct-21 21:48 45.874087 -111.072860 105 32938ft 497kts
11-Oct-21 21:49 45.854372 -110.873790 103 31736ft 512kts
11-Oct-21 21:50 45.842239 -110.667334 97 30153ft 528kts
11-Oct-21 21:51 45.843806 -110.455187 91 28566ft 533kts
11-Oct-21 21:52 45.854793 -110.245218 90 26976ft 524kts
11-Oct-21 21:53 45.862129 -110.039026 94 25218ft 508kts
11-Oct-21 21:54 45.856368 -109.840336 99 23021ft 491kts
11-Oct-21 21:55 45.842004 -109.649630 99 20820ft 468kts
11-Oct-21 21:56 45.831389 -109.468848 96 18616ft 443kts
11-Oct-21 21:57 45.828153 -109.295989 93 16415ft 423kts
11-Oct-21 21:58 45.841799 -109.134514 64 14228ft 409kts
11-Oct-21 21:59 45.893645 -109.004711 61 11993ft 324kts
11-Oct-21 22:00 45.947232 -108.922753 31 10341ft 268kts
11-Oct-21 22:01 45.998974 -108.857561 83 8817ft 259kts
11-Oct-21 22:02 45.946707 -108.806877 187 7299ft 262kts
11-Oct-21 22:03 45.885080 -108.796477 134 6054ft 195kts
11-Oct-21 22:04 45.863025 -108.740503 108 5857ft 147kts
11-Oct-21 22:05 45.847698 -108.682379 105 5728ft 177kts
11-Oct-21 22:06 45.830556 -108.618845 106 4528ft 146kts
11-Oct-21 22:07 45.814506 -108.564468 112 3785ft 159kts
11-Oct-21 22:08 45.803660 -108.523162 159 3663ft 13kts
11-Oct-21 22:09 45.803260 -108.525172 291 3663ft 12kts
11-Oct-21 22:10 45.804615 -108.530006 287 3663ft 13kts
11-Oct-21 22:11 45.805359 -108.535292 291 3663ft 13kts
11-Oct-21 22:12 45.805430 -108.540360 294 3663ft 13kts
11-Oct-21 22:13 45.805318 -108.542124 182 3663ft 0kts
11-Oct-21 22:14 45.805318 -108.542124 182 3663ft 0kts
11-Oct-21 22:16 45.805318 -108.542124 182 3663ft 0kts
11-Oct-21 22:17 45.805318 -108.542124 182 3663ft 0kts

Navigation Log

Ident Type
Flight plan parsing failed, navigation log unavailable